Time;durP1;ratioP1;P1;durP2;ratioP2;P2;SDS_P1;SDS_P2;PMS_P1;PMS_P2;Temp;Humidity;BMP_temperature;BMP_pressure;BME280_temperature;BME280_humidity;BME280_pressure;Samples;Min_cycle;Max_cycle;Signal;HPM_P1;HPM_P2
2022/08/24 00:00:11;;;;;;;0.00;0.00;;;22.00;84.00;;;;;;5006907;28;20043;-86
2022/08/24 00:02:38;;;;;;;0.00;0.00;;;22.00;84.30;;;;;;4972243;28;20043;-85
2022/08/24 00:05:06;;;;;;;0.00;0.00;;;22.00;84.50;;;;;;4992311;28;20418;-85
2022/08/24 00:07:39;;;;;;;0.00;0.00;;;22.00;84.70;;;;;;4988705;28;20049;-85
2022/08/24 00:10:09;;;;;;;0.00;0.00;;;22.00;84.10;;;;;;4990001;28;20046;-85
2022/08/24 00:12:36;;;;;;;0.00;0.00;;;22.00;84.50;;;;;;4979078;28;20057;-86
2022/08/24 00:15:05;;;;;;;0.00;0.00;;;22.00;84.60;;;;;;4991235;28;20395;-85
2022/08/24 00:17:33;;;;;;;0.00;0.00;;;;;;;;;;4995549;28;20514;-85
2022/08/24 00:19:59;;;;;;;0.00;0.00;;;21.80;84.60;;;;;;5006996;28;20301;-84
2022/08/24 00:22:27;;;;;;;0.00;0.00;;;21.90;84.90;;;;;;4990532;28;20542;-85
2022/08/24 00:24:55;;;;;;;0.00;0.00;;;22.00;84.40;;;;;;4991130;28;20058;-85
2022/08/24 00:27:23;;;;;;;0.00;0.00;;;22.00;84.80;;;;;;4989363;28;20042;-82
2022/08/24 00:29:51;;;;;;;0.00;0.00;;;;;;;;;;4995181;28;20057;-85
2022/08/24 00:32:18;;;;;;;0.00;0.00;;;;;;;;;;4994985;28;20495;-85
2022/08/24 00:34:46;;;;;;;0.00;0.00;;;22.00;85.40;;;;;;4993254;28;20058;-85
2022/08/24 00:37:26;;;;;;;0.00;0.00;;;22.00;86.60;;;;;;4974844;28;20050;-84
2022/08/24 00:39:53;;;;;;;0.00;0.00;;;21.70;85.60;;;;;;4994566;28;20377;-85
2022/08/24 00:42:20;;;;;;;0.00;0.00;;;21.60;86.00;;;;;;4980126;28;20049;-85
2022/08/24 00:44:48;;;;;;;0.00;0.00;;;21.50;86.10;;;;;;4995295;28;20510;-85
2022/08/24 00:47:19;;;;;;;0.00;0.00;;;21.60;86.10;;;;;;4996593;28;20044;-85
2022/08/24 00:49:53;;;;;;;0.00;0.00;;;21.60;86.60;;;;;;4993576;28;20038;-86
2022/08/24 00:52:26;;;;;;;0.00;0.00;;;21.30;86.20;;;;;;4992272;28;20054;-86
2022/08/24 00:54:57;;;;;;;0.00;0.00;;;21.40;87.20;;;;;;4993524;28;20659;-85
2022/08/24 00:57:26;;;;;;;0.00;0.00;;;21.40;87.70;;;;;;4991083;28;20034;-85
2022/08/24 00:59:58;;;;;;;0.00;0.00;;;21.50;88.50;;;;;;4994808;28;20057;-85
2022/08/24 01:02:29;;;;;;;0.00;0.00;;;21.80;87.70;;;;;;4996855;28;20593;-84
2022/08/24 01:05:00;;;;;;;0.00;0.00;;;21.40;88.40;;;;;;4987951;28;20057;-83
2022/08/24 01:07:30;;;;;;;0.00;0.00;;;21.30;88.00;;;;;;4998109;28;20038;-84
2022/08/24 01:10:00;;;;;;;0.00;0.00;;;21.30;88.50;;;;;;4995415;28;20558;-83
2022/08/24 01:12:30;;;;;;;0.00;0.00;;;21.20;89.60;;;;;;4993709;28;20043;-84
2022/08/24 01:15:00;;;;;;;0.00;0.00;;;21.20;89.70;;;;;;4993784;28;20046;-84
2022/08/24 01:20:14;;;;;;;0.00;0.00;;;21.00;90.00;;;;;;4990790;28;20045;-85
2022/08/24 01:22:53;;;;;;;0.00;0.00;;;21.00;90.00;;;;;;5009016;28;20050;-85
2022/08/24 01:25:24;;;;;;;0.00;0.00;;;20.80;90.20;;;;;;4993462;28;20507;-85
2022/08/24 01:27:58;;;;;;;0.00;0.00;;;20.80;90.40;;;;;;4992936;28;20427;-84
2022/08/24 01:30:26;;;;;;;0.00;0.00;;;20.80;90.30;;;;;;4994077;28;20149;-85
2022/08/24 01:33:04;;;;;;;0.00;0.00;;;20.80;90.40;;;;;;4986970;28;20076;-85
2022/08/24 01:35:32;;;;;;;;;;;20.70;90.50;;;;;;4993627;28;20065;-85
2022/08/24 01:38:03;;;;;;;0.00;0.00;;;21.00;90.80;;;;;;4995142;28;19921;-85
2022/08/24 01:40:35;;;;;;;0.00;0.00;;;20.60;90.80;;;;;;4996215;28;20047;-85
2022/08/24 01:43:04;;;;;;;0.00;0.00;;;20.50;90.60;;;;;;4993137;28;20470;-85
2022/08/24 01:45:32;;;;;;;0.00;0.00;;;20.60;90.70;;;;;;5004910;28;20050;-85
2022/08/24 01:48:00;;;;;;;0.00;0.00;;;;;;;;;;4992199;28;20059;-84
2022/08/24 01:50:28;;;;;;;0.00;0.00;;;;;;;;;;4995254;28;20472;-84
2022/08/24 01:52:57;;;;;;;0.00;0.00;;;20.40;90.80;;;;;;4985432;23;20050;-82
2022/08/24 01:55:33;;;;;;;0.00;0.00;;;20.40;91.40;;;;;;4950879;28;20079;-82
2022/08/24 01:58:00;;;;;;;0.00;0.00;;;20.30;91.30;;;;;;4938871;29;20055;-82
2022/08/24 02:00:27;;;;;;;0.00;0.00;;;20.20;91.60;;;;;;4937628;29;20043;-82
2022/08/24 02:02:55;;;;;;;0.00;0.00;;;20.20;91.70;;;;;;4939480;29;20633;-82
2022/08/24 02:05:24;;;;;;;0.00;0.00;;;20.00;91.50;;;;;;4979578;23;20047;-78
2022/08/24 02:07:51;;;;;;;0.00;0.00;;;20.00;91.70;;;;;;4966264;28;20047;-82
2022/08/24 02:10:18;;;;;;;0.00;0.00;;;20.00;91.70;;;;;;4982449;28;20455;-82
2022/08/24 02:12:56;;;;;;;0.00;0.00;;;20.00;91.80;;;;;;4969971;28;20034;-81
2022/08/24 02:15:26;;;;;;;0.00;0.00;;;19.80;92.10;;;;;;4968056;28;20042;-81
2022/08/24 02:17:53;;;;;;;0.00;0.00;;;;;;;;;;4970179;28;20503;-82
2022/08/24 02:20:21;;;;;;;0.00;0.00;;;19.70;92.20;;;;;;4968398;28;20046;-81
2022/08/24 02:22:48;;;;;;;0.00;0.00;;;19.60;92.60;;;;;;4969329;28;20042;-81
2022/08/24 02:25:16;;;;;;;0.00;0.00;;;19.60;92.50;;;;;;4982454;28;20042;-81
2022/08/24 02:27:43;;;;;;;0.00;0.00;;;19.50;92.60;;;;;;4965912;28;20046;-81
2022/08/24 02:30:12;;;;;;;0.00;0.00;;;19.50;93.00;;;;;;4965712;28;20027;-80
2022/08/24 02:32:41;;;;;;;0.00;0.00;;;19.50;92.90;;;;;;4970297;28;20046;-81
2022/08/24 02:35:09;;;;;;;0.00;0.00;;;19.40;93.00;;;;;;4967912;28;20039;-80
2022/08/24 02:37:36;;;;;;;0.00;0.00;;;19.40;93.00;;;;;;4971504;28;20046;-80
2022/08/24 02:40:11;;;;;;;0.00;0.00;;;19.40;93.00;;;;;;4981825;28;20082;-82
2022/08/24 02:42:38;;;;;;;0.00;0.00;;;19.50;92.80;;;;;;4972090;28;20050;-80
2022/08/24 02:45:06;;;;;;;0.00;0.00;;;19.40;92.80;;;;;;4982106;28;20042;-82
2022/08/24 02:47:35;;;;;;;0.00;0.00;;;19.40;93.00;;;;;;4969191;28;20058;-81
2022/08/24 02:50:08;;;;;;;0.00;0.00;;;19.20;93.10;;;;;;4966872;28;20042;-81
2022/08/24 02:52:35;;;;;;;0.00;0.00;;;19.20;93.30;;;;;;4969724;28;20077;-81
2022/08/24 02:55:03;;;;;;;0.00;0.00;;;19.30;93.10;;;;;;4966178;28;20050;-81
2022/08/24 02:57:30;;;;;;;0.00;0.00;;;19.20;93.30;;;;;;4968330;28;20047;-81
2022/08/24 02:59:56;;;;;;;0.00;0.00;;;19.20;93.30;;;;;;4969016;28;20042;-80
2022/08/24 03:02:23;;;;;;;0.00;0.00;;;19.20;93.00;;;;;;4972533;28;20054;-81
2022/08/24 03:04:52;;;;;;;0.00;0.00;;;19.20;93.00;;;;;;4968009;28;20059;-80
2022/08/24 03:07:18;;;;;;;0.00;0.00;;;19.10;93.60;;;;;;4969263;28;20113;-80
2022/08/24 03:09:45;;;;;;;0.00;0.00;;;19.20;93.40;;;;;;4965642;28;20083;-82
2022/08/24 03:12:12;;;;;;;0.00;0.00;;;19.20;93.60;;;;;;4984552;28;20299;-81
2022/08/24 03:14:40;;;;;;;0.00;0.00;;;19.20;93.60;;;;;;4965710;28;20428;-82
2022/08/24 03:17:07;;;;;;;0.00;0.00;;;19.10;93.90;;;;;;4983222;28;20055;-82
2022/08/24 03:19:33;;;;;;;0.00;0.00;;;19.10;93.80;;;;;;4981325;28;20035;-79
2022/08/24 03:22:02;;;;;;;0.00;0.00;;;19.10;93.80;;;;;;4982809;28;20349;-81
2022/08/24 03:24:28;;;;;;;0.00;0.00;;;19.10;93.90;;;;;;4967273;28;20035;-82
2022/08/24 03:26:55;;;;;;;0.10;0.10;;;19.10;93.80;;;;;;4968477;28;20035;-81
2022/08/24 03:29:25;;;;;;;0.00;0.00;;;19.10;93.80;;;;;;4964321;28;20046;-80
2022/08/24 03:31:52;;;;;;;0.00;0.00;;;19.00;94.10;;;;;;4970994;28;20043;-81
2022/08/24 03:34:19;;;;;;;0.00;0.00;;;;;;;;;;4968776;28;20109;-81
2022/08/24 03:36:46;;;;;;;0.00;0.00;;;18.90;94.10;;;;;;4968777;28;20421;-82
2022/08/24 03:39:15;;;;;;;0.00;0.00;;;18.90;94.40;;;;;;4965347;28;20055;-80
2022/08/24 03:41:42;;;;;;;0.00;0.00;;;18.90;94.30;;;;;;4967266;28;20471;-81
2022/08/24 03:44:09;;;;;;;0.00;0.00;;;18.90;94.20;;;;;;4969497;28;20467;-82
2022/08/24 03:46:36;;;;;;;0.00;0.00;;;18.90;94.30;;;;;;4985587;28;20113;-82
2022/08/24 03:49:05;;;;;;;0.00;0.00;;;18.90;94.10;;;;;;4965709;28;20047;-80
2022/08/24 03:51:32;;;;;;;0.00;0.00;;;18.90;94.20;;;;;;4963287;28;20080;-81
2022/08/24 03:54:00;;;;;;;0.00;0.00;;;18.90;93.90;;;;;;4967379;28;20051;-80
2022/08/24 03:56:28;;;;;;;0.00;0.00;;;19.00;93.80;;;;;;4965830;28;20055;-80
2022/08/24 03:58:56;;;;;;;0.00;0.00;;;18.90;93.80;;;;;;4968137;28;20058;-80
2022/08/24 04:01:23;;;;;;;0.00;0.00;;;19.00;93.70;;;;;;4974258;28;20039;-82
2022/08/24 04:03:52;;;;;;;0.00;0.00;;;18.90;94.00;;;;;;4968815;28;20071;-81
2022/08/24 04:06:20;;;;;;;0.00;0.00;;;18.90;94.30;;;;;;4971528;28;20098;-82
2022/08/24 04:08:47;;;;;;;0.00;0.00;;;18.90;94.20;;;;;;4975939;28;20054;-80
2022/08/24 04:11:17;;;;;;;0.00;0.00;;;18.80;94.40;;;;;;4979146;28;20054;-80
2022/08/24 04:13:46;;;;;;;0.00;0.00;;;18.70;94.60;;;;;;4971932;28;20043;-83
2022/08/24 04:16:17;;;;;;;0.00;0.00;;;18.70;94.60;;;;;;4963088;28;20521;-80
2022/08/24 04:18:44;;;;;;;0.00;0.00;;;18.70;94.70;;;;;;4971770;28;20748;-80
2022/08/24 04:21:15;;;;;;;0.00;0.00;;;18.70;94.50;;;;;;4966224;28;20065;-80
2022/08/24 04:23:42;;;;;;;0.00;0.00;;;18.70;94.40;;;;;;4970210;28;20113;-80
2022/08/24 04:26:14;;;;;;;0.00;0.00;;;18.70;94.50;;;;;;4970268;28;20066;-82
2022/08/24 04:28:41;;;;;;;0.00;0.00;;;18.80;94.20;;;;;;4968789;28;20043;-80
2022/08/24 04:31:09;;;;;;;0.00;0.00;;;18.80;94.20;;;;;;4969263;28;20050;-81
2022/08/24 04:33:37;;;;;;;0.00;0.00;;;18.90;94.40;;;;;;4964010;28;20046;-80
2022/08/24 04:36:07;;;;;;;0.00;0.00;;;18.80;94.20;;;;;;4971499;28;20043;-81
2022/08/24 04:38:35;;;;;;;0.00;0.00;;;18.90;94.30;;;;;;4976231;28;20038;-81
2022/08/24 04:41:05;;;;;;;;;;;18.80;94.40;;;;;;4968260;28;20074;-81
2022/08/24 04:43:33;;;;;;;0.00;0.00;;;18.80;94.40;;;;;;4968525;28;19926;-80
2022/08/24 04:46:04;;;;;;;0.00;0.00;;;18.90;94.20;;;;;;4971387;28;20706;-81
2022/08/24 04:48:33;;;;;;;0.00;0.00;;;18.90;94.30;;;;;;4972536;28;20132;-81
2022/08/24 04:51:01;;;;;;;0.00;0.00;;;18.90;94.20;;;;;;4966476;28;20043;-80
2022/08/24 04:53:29;;;;;;;0.00;0.00;;;18.80;94.70;;;;;;4967302;28;20077;-80
2022/08/24 04:55:56;;;;;;;0.00;0.00;;;18.90;94.70;;;;;;4969398;28;20045;-80
2022/08/24 04:58:23;;;;;;;0.00;0.00;;;18.90;94.60;;;;;;4971854;28;20088;-81
2022/08/24 05:00:50;;;;;;;0.00;0.00;;;18.90;94.80;;;;;;4971295;28;20043;-80
2022/08/24 05:03:17;;;;;;;0.00;0.00;;;18.90;94.90;;;;;;4984846;28;20046;-79
2022/08/24 05:05:48;;;;;;;0.00;0.00;;;18.80;95.10;;;;;;4974790;28;20491;-79
2022/08/24 05:08:18;;;;;;;0.00;0.00;;;18.80;95.20;;;;;;4976403;28;20035;-81
2022/08/24 05:10:47;;;;;;;0.00;0.00;;;18.80;95.20;;;;;;4984738;28;20102;-80
2022/08/24 05:13:14;;;;;;;0.00;0.00;;;18.80;95.40;;;;;;4967809;28;20408;-81
2022/08/24 05:15:43;;;;;;;0.00;0.00;;;18.80;95.00;;;;;;4969805;28;20069;-80
2022/08/24 05:18:12;;;;;;;0.00;0.00;;;18.80;95.20;;;;;;4967683;28;20043;-81
2022/08/24 05:20:39;;;;;;;0.00;0.00;;;18.80;95.60;;;;;;4969045;28;20061;-81
2022/08/24 05:23:08;;;;;;;0.00;0.00;;;18.80;95.70;;;;;;4988009;28;20035;-80
2022/08/24 05:25:36;;;;;;;0.00;0.00;;;18.80;95.60;;;;;;4981296;28;20478;-80
2022/08/24 05:28:04;;;;;;;0.00;0.00;;;18.90;95.60;;;;;;4972920;28;20042;-80
2022/08/24 05:30:31;;;;;;;0.00;0.00;;;;;;;;;;4968131;28;20053;-80
2022/08/24 05:32:58;;;;;;;0.00;0.00;;;18.90;95.20;;;;;;4970213;28;20050;-80
2022/08/24 05:35:25;;;;;;;0.00;0.00;;;18.80;95.40;;;;;;4970869;28;20081;-80
2022/08/24 05:37:52;;;;;;;0.00;0.00;;;18.80;95.60;;;;;;4973256;28;20115;-81
2022/08/24 05:40:22;;;;;;;0.00;0.00;;;18.80;95.90;;;;;;4973111;28;20329;-80
2022/08/24 05:42:49;;;;;;;0.00;0.00;;;18.90;95.70;;;;;;4972459;28;20050;-80
2022/08/24 05:45:16;;;;;;;0.00;0.00;;;19.00;95.70;;;;;;4971845;28;20530;-81
2022/08/24 05:47:42;;;;;;;0.00;0.00;;;19.00;95.90;;;;;;4970869;28;22249;-80
2022/08/24 05:50:10;;;;;;;0.00;0.00;;;19.10;96.10;;;;;;4969280;28;20503;-80
2022/08/24 05:52:37;;;;;;;0.00;0.00;;;19.10;96.30;;;;;;4965248;28;20082;-81
2022/08/24 05:55:04;;;;;;;0.00;0.00;;;19.30;96.00;;;;;;4972282;28;20038;-79
2022/08/24 05:57:34;;;;;;;0.03;0.03;;;19.40;96.70;;;;;;4985102;28;20050;-81
2022/08/24 06:00:05;;;;;;;0.00;0.00;;;19.40;95.90;;;;;;4972186;28;20043;-82
2022/08/24 06:02:33;;;;;;;0.00;0.00;;;19.60;95.50;;;;;;4981329;28;20578;-82
2022/08/24 06:05:00;;;;;;;0.00;0.00;;;19.70;95.20;;;;;;4970710;28;20195;-82
2022/08/24 06:07:27;;;;;;;0.00;0.00;;;19.90;95.00;;;;;;4988503;28;20490;-80
2022/08/24 06:09:54;;;;;;;0.00;0.00;;;20.10;94.90;;;;;;4971426;28;20081;-80
2022/08/24 06:12:21;;;;;;;0.00;0.00;;;20.30;95.10;;;;;;4973460;28;20504;-80
2022/08/24 06:14:49;;;;;;;0.00;0.00;;;20.50;95.40;;;;;;4972512;28;20051;-80
2022/08/24 06:17:16;;;;;;;0.00;0.00;;;20.60;94.80;;;;;;4967484;28;20050;-80
2022/08/24 06:19:43;;;;;;;0.00;0.00;;;20.80;94.90;;;;;;4968748;28;20047;-80
2022/08/24 06:22:10;;;;;;;0.00;0.00;;;20.90;94.40;;;;;;4988406;28;20503;-80
2022/08/24 06:27:25;;;;;;;0.00;0.00;;;21.00;94.30;;;;;;4973443;28;20042;-80
2022/08/24 06:29:55;;;;;;;0.00;0.00;;;21.10;93.70;;;;;;4972184;28;20487;-81
2022/08/24 06:32:23;;;;;;;0.00;0.00;;;21.20;93.60;;;;;;4972698;28;20042;-81
2022/08/24 06:34:53;;;;;;;0.00;0.00;;;21.20;93.60;;;;;;4968612;28;20105;-82
2022/08/24 06:37:25;;;;;;;0.00;0.00;;;21.20;93.40;;;;;;4972859;28;20031;-81
2022/08/24 06:39:55;;;;;;;0.00;0.00;;;21.20;93.20;;;;;;4973628;28;20427;-81
2022/08/24 06:42:23;;;;;;;0.03;0.03;;;21.20;93.50;;;;;;4972236;28;20461;-80
2022/08/24 06:44:51;;;;;;;0.00;0.00;;;21.20;93.40;;;;;;4987494;28;20125;-80
2022/08/24 06:47:20;;;;;;;0.00;0.00;;;21.20;93.30;;;;;;4984597;28;20116;-81
2022/08/24 06:49:47;;;;;;;0.00;0.00;;;21.30;93.30;;;;;;4975184;28;20050;-80
2022/08/24 06:52:15;;;;;;;0.00;0.00;;;21.30;93.20;;;;;;4970145;28;20094;-80
2022/08/24 06:54:41;;;;;;;0.00;0.00;;;21.30;93.00;;;;;;4985161;28;20549;-81
2022/08/24 06:57:08;;;;;;;0.00;0.00;;;21.40;93.00;;;;;;4972872;28;20042;-81
2022/08/24 06:59:35;;;;;;;0.00;0.00;;;21.50;93.00;;;;;;4987816;28;20526;-81
2022/08/24 07:02:02;;;;;;;0.00;0.00;;;21.60;92.80;;;;;;4971389;28;20102;-81
2022/08/24 07:04:30;;;;;;;0.00;0.00;;;21.60;92.70;;;;;;4971616;28;20050;-82
2022/08/24 07:06:57;;;;;;;0.00;0.00;;;21.60;93.90;;;;;;4987610;28;20035;-81
2022/08/24 07:09:24;;;;;;;0.00;0.00;;;21.70;93.70;;;;;;4972486;28;20059;-81
2022/08/24 07:11:51;;;;;;;0.00;0.00;;;21.70;93.50;;;;;;4972703;28;20101;-81
2022/08/24 07:14:18;;;;;;;0.00;0.00;;;21.80;93.60;;;;;;4971834;28;20046;-82
2022/08/24 07:16:45;;;;;;;0.00;0.00;;;21.90;93.20;;;;;;4987132;28;20051;-81
2022/08/24 07:19:12;;;;;;;0.00;0.00;;;21.80;93.20;;;;;;4972832;28;20109;-81
2022/08/24 07:21:41;;;;;;;0.00;0.00;;;22.00;93.30;;;;;;4972430;28;20050;-80
2022/08/24 07:24:09;;;;;;;0.00;0.00;;;22.10;93.40;;;;;;4988450;28;20054;-82
2022/08/24 07:26:37;;;;;;;0.00;0.00;;;22.10;93.10;;;;;;4975476;28;20062;-80
2022/08/24 07:29:08;;;;;;;0.00;0.00;;;22.10;93.10;;;;;;4986181;28;20685;-81
2022/08/24 07:31:55;;;;;;;0.00;0.00;;;22.10;93.30;;;;;;4984096;28;20491;-81
2022/08/24 07:34:22;;;;;;;0.00;0.00;;;22.20;93.00;;;;;;4971492;28;20105;-81
2022/08/24 07:36:51;;;;;;;0.00;0.00;;;22.20;93.20;;;;;;4971317;28;20051;-82
2022/08/24 07:39:18;;;;;;;0.00;0.00;;;22.30;92.90;;;;;;4969599;28;20491;-82
2022/08/24 07:41:45;;;;;;;0.00;0.00;;;22.50;92.90;;;;;;4971886;28;20055;-81
2022/08/24 07:44:32;;;;;;;0.00;0.00;;;22.60;92.80;;;;;;4980518;28;20065;-81
2022/08/24 07:46:59;;;;;;;0.00;0.00;;;22.60;92.50;;;;;;4972147;28;20046;-81
2022/08/24 07:49:46;;;;;;;0.00;0.00;;;22.60;92.40;;;;;;4969375;28;20499;-81
2022/08/24 07:52:14;;;;;;;0.00;0.00;;;22.70;92.00;;;;;;4971954;28;20065;-83
2022/08/24 07:54:41;;;;;;;0.00;0.00;;;22.70;92.00;;;;;;4970613;28;20046;-82
2022/08/24 07:57:08;;;;;;;0.00;0.00;;;22.70;92.00;;;;;;4986621;28;20051;-80
2022/08/24 07:59:35;;;;;;;0.00;0.00;;;22.80;91.90;;;;;;4970665;28;20055;-81
2022/08/24 08:02:04;;;;;;;0.00;0.00;;;22.80;91.90;;;;;;4971917;28;20121;-81
2022/08/24 08:04:30;;;;;;;0.00;0.00;;;22.90;92.00;;;;;;4972009;28;20050;-80
2022/08/24 08:06:59;;;;;;;0.00;0.00;;;23.00;91.80;;;;;;4971874;28;20442;-81
2022/08/24 08:09:28;;;;;;;0.00;0.00;;;23.20;91.90;;;;;;4972519;28;20062;-80
2022/08/24 08:11:55;;;;;;;0.00;0.00;;;23.30;91.80;;;;;;4972024;28;20051;-81
2022/08/24 08:14:21;;;;;;;0.00;0.00;;;23.40;90.10;;;;;;4970072;28;20402;-80
2022/08/24 08:16:48;;;;;;;0.00;0.00;;;23.40;88.70;;;;;;4986445;28;20511;-80
2022/08/24 08:19:15;;;;;;;0.00;0.00;;;23.50;88.20;;;;;;4972315;28;20035;-80
2022/08/24 08:24:31;;;;;;;0.00;0.00;;;23.60;87.90;;;;;;4972058;28;20054;-80
2022/08/24 08:26:59;;;;;;;0.00;0.00;;;23.60;87.50;;;;;;4972696;28;20046;-80
2022/08/24 08:29:26;;;;;;;0.00;0.00;;;23.70;86.90;;;;;;4971081;28;20047;-81
2022/08/24 08:31:53;;;;;;;0.00;0.00;;;23.70;86.90;;;;;;4985387;28;20053;-81
2022/08/24 08:34:20;;;;;;;0.00;0.00;;;23.80;87.00;;;;;;4970557;28;20050;-81
2022/08/24 08:36:47;;;;;;;0.00;0.00;;;23.90;85.70;;;;;;4985231;28;20113;-81
2022/08/24 08:39:17;;;;;;;0.00;0.00;;;24.00;86.30;;;;;;4987189;28;20057;-80
2022/08/24 08:42:03;;;;;;;0.00;0.00;;;24.00;85.90;;;;;;4971664;28;20042;-81
2022/08/24 08:44:58;;;;;;;0.00;0.00;;;24.10;86.20;;;;;;4970439;28;20039;-81
2022/08/24 08:47:43;;;;;;;0.00;0.00;;;24.30;86.50;;;;;;4967966;28;20051;-81
2022/08/24 08:50:17;;;;;;;0.00;0.00;;;24.40;85.10;;;;;;4971406;28;20055;-82
2022/08/24 08:53:12;;;;;;;0.00;0.00;;;24.50;86.00;;;;;;4975196;28;20046;-80
2022/08/24 08:55:44;;;;;;;0.00;0.00;;;24.50;84.90;;;;;;4973506;28;20058;-81
2022/08/24 08:58:26;;;;;;;0.00;0.00;;;24.60;84.70;;;;;;4973591;28;20035;-80
2022/08/24 09:01:02;;;;;;;0.00;0.00;;;24.70;85.20;;;;;;4956577;28;20043;-80
2022/08/24 09:04:08;;;;;;;0.00;0.00;;;24.70;84.40;;;;;;4989622;28;20047;-80
2022/08/24 09:06:56;;;;;;;0.00;0.00;;;24.80;84.80;;;;;;4974670;28;20054;-80
2022/08/24 09:09:47;;;;;;;0.00;0.00;;;24.80;84.10;;;;;;4969838;28;20039;-81
2022/08/24 09:12:26;;;;;;;0.00;0.00;;;25.00;85.00;;;;;;4972472;28;20046;-81
2022/08/24 09:15:08;;;;;;;0.00;0.00;;;25.00;83.10;;;;;;4973590;28;20055;-80
2022/08/24 09:17:49;;;;;;;0.00;0.00;;;25.10;83.20;;;;;;4973447;28;20486;-81
2022/08/24 09:20:30;;;;;;;0.00;0.00;;;25.20;83.50;;;;;;4989454;28;20051;-80
2022/08/24 09:23:07;;;;;;;0.00;0.00;;;25.30;82.90;;;;;;4974339;28;20041;-81
2022/08/24 09:25:44;;;;;;;0.00;0.00;;;25.40;82.50;;;;;;4973414;28;20035;-81
2022/08/24 09:28:32;;;;;;;0.00;0.00;;;25.40;83.00;;;;;;4986036;28;20070;-80
2022/08/24 09:31:36;;;;;;;0.00;0.00;;;25.50;83.10;;;;;;4970079;28;20087;-80
2022/08/24 09:34:15;;;;;;;0.00;0.00;;;25.60;83.40;;;;;;4988898;28;20041;-80
2022/08/24 09:36:56;;;;;;;0.00;0.00;;;25.60;83.10;;;;;;4974377;28;20058;-81
2022/08/24 09:39:37;;;;;;;0.00;0.00;;;25.70;83.20;;;;;;4989129;28;20506;-81
2022/08/24 09:42:34;;;;;;;0.00;0.00;;;25.70;83.20;;;;;;4987586;28;20035;-81
2022/08/24 09:45:30;;;;;;;0.00;0.00;;;25.70;82.30;;;;;;4985230;28;20102;-82
2022/08/24 09:48:20;;;;;;;0.00;0.00;;;25.80;81.70;;;;;;4973963;28;20042;-81
2022/08/24 09:51:23;;;;;;;0.00;0.00;;;25.90;82.00;;;;;;4972687;28;20042;-81
2022/08/24 09:54:33;;;;;;;0.00;0.00;;;25.90;81.10;;;;;;4971674;28;20443;-80
2022/08/24 09:57:27;;;;;;;0.00;0.00;;;25.90;82.30;;;;;;4971798;28;20047;-81
2022/08/24 10:00:19;;;;;;;0.00;0.00;;;26.00;82.80;;;;;;4959746;28;20054;-81
2022/08/24 10:03:00;;;;;;;0.00;0.00;;;26.10;82.00;;;;;;4974010;28;20035;-79
2022/08/24 10:05:39;;;;;;;0.00;0.00;;;26.20;80.20;;;;;;4985728;28;20042;-81
2022/08/24 10:08:13;;;;;;;;;;;26.20;80.70;;;;;;4973638;28;20482;-81
2022/08/24 10:10:49;;;;;;;0.00;0.00;;;26.30;81.80;;;;;;4965014;28;19926;-81
2022/08/24 10:13:25;;;;;;;0.00;0.00;;;26.30;79.50;;;;;;4970067;28;20035;-81
2022/08/24 10:16:15;;;;;;;0.00;0.00;;;26.30;80.30;;;;;;4986594;28;20127;-80
2022/08/24 10:18:55;;;;;;;0.00;0.00;;;26.40;81.40;;;;;;4986360;28;20039;-79
2022/08/24 10:21:36;;;;;;;0.00;0.00;;;26.50;80.20;;;;;;4973159;28;20073;-81
2022/08/24 10:24:27;;;;;;;0.00;0.00;;;26.60;78.50;;;;;;4963766;28;20089;-80
2022/08/24 10:27:31;;;;;;;0.00;0.00;;;26.70;77.80;;;;;;4989563;28;20051;-80
2022/08/24 10:30:26;;;;;;;0.00;0.00;;;26.70;78.20;;;;;;4968590;28;20109;-80
2022/08/24 10:33:05;;;;;;;0.00;0.00;;;29.70;80.20;;;;;;4967699;28;20085;-80
2022/08/24 10:35:36;;;;;;;0.00;0.00;;;27.00;77.00;;;;;;4972880;28;20097;-80
2022/08/24 10:41:52;;;;;;;0.00;0.00;;;27.10;77.40;;;;;;4969006;28;20078;-81
2022/08/24 10:44:44;;;;;;;0.00;0.00;;;27.20;77.40;;;;;;4908707;29;20085;-82
2022/08/24 10:47:19;;;;;;;0.00;0.00;;;27.30;77.50;;;;;;4908812;29;20103;-81
2022/08/24 10:50:24;;;;;;;0.00;0.00;;;27.40;77.20;;;;;;4948750;28;20050;-81
2022/08/24 10:53:10;;;;;;;0.00;0.00;;;27.50;76.20;;;;;;4966833;28;20067;-80
2022/08/24 10:55:40;;;;;;;0.00;0.00;;;27.60;75.80;;;;;;4970937;28;20043;-81
2022/08/24 10:58:44;;;;;;;0.00;0.00;;;27.70;75.50;;;;;;4972926;28;20478;-81
2022/08/24 11:01:22;;;;;;;0.00;0.00;;;27.80;76.60;;;;;;4970445;28;20039;-80
2022/08/24 11:03:53;;;;;;;0.00;0.00;;;28.00;75.40;;;;;;4979847;28;20514;-80
2022/08/24 11:06:21;;;;;;;0.00;0.00;;;28.10;74.30;;;;;;4965373;28;20065;-80
2022/08/24 11:08:54;;;;;;;0.00;0.00;;;28.10;74.90;;;;;;4964835;28;20058;-80
2022/08/24 11:11:32;;;;;;;0.00;0.00;;;28.20;74.80;;;;;;4965193;28;20110;-81
2022/08/24 11:14:01;;;;;;;0.00;0.00;;;28.30;75.30;;;;;;4966119;28;20561;-80
2022/08/24 11:16:34;;;;;;;0.00;0.00;;;28.60;74.10;;;;;;4967240;28;20068;-80
2022/08/24 11:19:05;;;;;;;0.00;0.00;;;28.60;72.60;;;;;;4964546;28;20053;-81
2022/08/24 11:21:43;;;;;;;0.00;0.00;;;28.50;72.60;;;;;;4968816;28;20047;-79
2022/08/24 11:24:26;;;;;;;0.00;0.00;;;28.60;72.40;;;;;;4962075;28;20050;-82
2022/08/24 11:26:58;;;;;;;0.00;0.00;;;28.80;71.50;;;;;;4960215;28;20046;-80
2022/08/24 11:29:30;;;;;;;0.00;0.00;;;28.80;71.90;;;;;;4963659;28;20046;-81
2022/08/24 11:31:57;;;;;;;0.00;0.00;;;28.90;71.90;;;;;;4961687;28;20487;-80
2022/08/24 11:34:35;;;;;;;0.00;0.00;;;29.00;70.90;;;;;;4961864;28;20034;-81
2022/08/24 11:37:03;;;;;;;0.00;0.00;;;29.10;70.20;;;;;;4965904;28;20042;-79
2022/08/24 11:39:34;;;;;;;0.00;0.00;;;29.10;71.00;;;;;;4962404;28;20039;-80
2022/08/24 11:42:12;;;;;;;0.00;0.00;;;29.30;71.70;;;;;;4961318;28;20050;-81
2022/08/24 11:44:45;;;;;;;0.00;0.00;;;29.40;70.20;;;;;;4968920;28;20522;-83
2022/08/24 11:47:55;;;;;;;0.00;0.00;;;29.50;69.60;;;;;;4977850;28;20137;-80
2022/08/24 11:50:32;;;;;;;0.00;0.00;;;29.70;72.60;;;;;;4891304;29;20195;-81
2022/08/24 11:53:10;;;;;;;0.00;0.00;;;29.80;69.60;;;;;;4901136;29;20046;-81
2022/08/24 11:55:47;;;;;;;0.00;0.00;;;29.80;69.10;;;;;;4925837;28;20055;-79
2022/08/24 11:58:36;;;;;;;0.00;0.00;;;30.00;69.90;;;;;;4959694;28;20042;-81
2022/08/24 12:01:07;;;;;;;0.00;0.00;;;30.00;69.20;;;;;;4964065;28;20051;-81
2022/08/24 12:03:47;;;;;;;0.00;0.00;;;30.20;70.40;;;;;;4962338;28;20054;-80
2022/08/24 12:06:30;;;;;;;0.00;0.00;;;30.20;68.20;;;;;;4958470;28;20061;-82
2022/08/24 12:09:04;;;;;;;0.00;0.00;;;30.20;68.60;;;;;;4966703;28;20050;-81
2022/08/24 12:11:40;;;;;;;0.00;0.00;;;30.20;69.80;;;;;;4965507;28;20494;-80
2022/08/24 12:14:16;;;;;;;0.00;0.00;;;30.40;68.10;;;;;;4961667;28;20487;-80
2022/08/24 12:16:49;;;;;;;0.00;0.00;;;30.30;68.10;;;;;;4960297;28;20086;-81
2022/08/24 12:19:20;;;;;;;0.00;0.00;;;30.30;68.70;;;;;;4963035;28;20035;-80
2022/08/24 12:21:52;;;;;;;0.00;0.00;;;30.40;68.30;;;;;;4964987;28;20053;-81
2022/08/24 12:24:29;;;;;;;0.00;0.00;;;30.50;68.10;;;;;;4966484;28;20098;-81
2022/08/24 12:27:02;;;;;;;0.00;0.00;;;30.50;70.00;;;;;;4984554;28;20042;-81
2022/08/24 12:29:36;;;;;;;0.00;0.00;;;30.50;67.00;;;;;;4954840;28;20102;-81
2022/08/24 12:32:08;;;;;;;0.00;0.00;;;30.60;67.80;;;;;;4960814;28;20487;-81
2022/08/24 12:34:47;;;;;;;0.00;0.00;;;30.60;66.10;;;;;;4972588;28;20456;-81
2022/08/24 12:37:21;;;;;;;0.00;0.00;;;30.80;67.30;;;;;;4948863;28;20058;-80
2022/08/24 12:39:56;;;;;;;0.00;0.00;;;30.80;65.80;;;;;;4968002;28;20266;-81
2022/08/24 12:42:31;;;;;;;0.00;0.00;;;30.80;66.30;;;;;;4958576;28;20085;-81
2022/08/24 12:45:04;;;;;;;0.00;0.00;;;30.90;66.10;;;;;;4961582;28;20113;-79
2022/08/24 12:47:40;;;;;;;0.00;0.00;;;30.50;65.60;;;;;;4962525;28;20046;-80
2022/08/24 12:50:12;;;;;;;0.00;0.00;;;30.50;65.40;;;;;;4980678;28;20054;-80
2022/08/24 12:53:05;;;;;;;0.00;0.00;;;30.40;65.40;;;;;;4964265;28;20049;-79
2022/08/24 12:56:12;;;;;;;0.00;0.00;;;30.80;67.00;;;;;;4977617;28;20501;-81
2022/08/24 12:59:00;;;;;;;0.00;0.00;;;30.80;67.80;;;;;;4980492;28;20105;-80
2022/08/24 13:01:34;;;;;;;0.00;0.00;;;30.90;67.40;;;;;;4961864;28;20067;-82
2022/08/24 13:04:21;;;;;;;0.00;0.00;;;31.00;67.20;;;;;;4974466;28;20046;-81
2022/08/24 13:06:51;;;;;;;0.00;0.00;;;31.00;66.30;;;;;;4951166;28;20093;-80
2022/08/24 13:09:31;;;;;;;0.00;0.00;;;31.00;66.40;;;;;;4969443;28;20054;-81
2022/08/24 13:12:43;;;;;;;0.00;0.00;;;30.90;65.60;;;;;;4979240;28;20105;-80
2022/08/24 13:15:24;;;;;;;0.00;0.00;;;30.80;66.00;;;;;;4962832;28;20557;-79
2022/08/24 13:17:55;;;;;;;0.00;0.00;;;30.80;67.70;;;;;;4983756;28;20054;-79
2022/08/24 13:20:49;;;;;;;0.00;0.00;;;30.70;66.60;;;;;;4966690;28;20101;-81
2022/08/24 13:23:19;;;;;;;0.00;0.00;;;30.70;66.90;;;;;;4969071;28;20042;-78
2022/08/24 13:25:55;;;;;;;0.00;0.00;;;30.70;67.40;;;;;;4967165;28;20113;-82
2022/08/24 13:28:41;;;;;;;0.00;0.00;;;30.70;66.70;;;;;;4970151;28;20047;-82
2022/08/24 13:31:24;;;;;;;0.00;0.00;;;30.60;65.90;;;;;;4981053;28;20039;-81